Time;durP1;ratioP1;P1;durP2;ratioP2;P2;SDS_P1;SDS_P2;PMS_P1;PMS_P2;Temp;Humidity;BMP_temperature;BMP_pressure;BME280_temperature;BME280_humidity;BME280_pressure;Samples;Min_cycle;Max_cycle;Signal;HPM_P1;HPM_P2
2023/01/13 00:01:22;;;;;;;29.98;11.25;;;;;;;-3.20;100.00;99465.94;5138271;28;20058;-65
2023/01/13 00:03:49;;;;;;;31.23;12.63;;;;;;;-2.81;100.00;99456.53;5138120;28;20051;-66
2023/01/13 00:06:17;;;;;;;36.78;13.90;;;;;;;-3.29;100.00;99472.91;5138291;28;20057;-60
2023/01/13 00:08:44;;;;;;;37.42;15.00;;;;;;;-3.02;100.00;99469.16;5138330;28;20062;-65
2023/01/13 00:11:10;;;;;;;35.38;13.55;;;;;;;-2.98;100.00;99471.03;5138360;28;20051;-62
2023/01/13 00:13:37;;;;;;;32.83;14.32;;;;;;;-3.19;100.00;99478.25;5138041;28;20051;-66
2023/01/13 00:16:05;;;;;;;31.65;13.10;;;;;;;-3.06;100.00;99476.94;5138480;28;20065;-64
2023/01/13 00:18:32;;;;;;;30.63;13.20;;;;;;;-3.03;100.00;99467.53;5138262;28;20327;-56
2023/01/13 00:21:00;;;;;;;34.75;10.45;;;;;;;-3.09;100.00;99472.09;5138318;28;20408;-65
2023/01/13 00:23:27;;;;;;;31.63;13.32;;;;;;;-3.11;100.00;99468.88;5137997;28;20123;-66
2023/01/13 00:25:55;;;;;;;37.65;13.68;;;;;;;-2.88;100.00;99452.25;5138302;28;20141;-64
2023/01/13 00:28:21;;;;;;;38.10;13.82;;;;;;;-2.94;100.00;99460.56;5137800;28;20051;-58
2023/01/13 00:30:48;;;;;;;29.48;13.77;;;;;;;-2.94;100.00;99456.00;5137844;28;20043;-66
2023/01/13 00:33:14;;;;;;;27.98;12.75;;;;;;;-3.10;100.00;99457.06;5138079;28;20062;-59
2023/01/13 00:35:40;;;;;;;33.90;14.02;;;;;;;-3.10;100.00;99446.34;5138036;28;20389;-64
2023/01/13 00:38:07;;;;;;;34.97;13.13;;;;;;;-2.98;100.00;99430.00;5137889;28;20051;-64
2023/01/13 00:40:33;;;;;;;25.17;11.45;;;;;;;-3.18;100.00;99428.91;5137838;28;20051;-60
2023/01/13 00:45:43;;;;;;;40.85;12.25;;;;;;;-3.14;100.00;99392.44;5137784;28;20086;-58
2023/01/13 00:48:10;;;;;;;32.70;12.95;;;;;;;-2.91;100.00;99382.22;5138094;28;20332;-66
2023/01/13 00:50:36;;;;;;;30.83;13.20;;;;;;;-3.06;100.00;99384.94;5137590;28;20481;-61
2023/01/13 00:53:02;;;;;;;28.52;12.23;;;;;;;-3.10;100.00;99361.34;5138011;28;20051;-64
2023/01/13 00:55:31;;;;;;;30.42;13.65;;;;;;;-3.25;100.00;99361.34;5137775;28;20051;-64
2023/01/13 00:58:02;;;;;;;40.50;14.40;;;;;;;-3.07;100.00;99349.25;5137468;28;20076;-61
2023/01/13 01:00:28;;;;;;;35.80;11.63;;;;;;;-3.15;100.00;99342.56;5137744;28;20058;-65
2023/01/13 01:02:54;;;;;;;40.90;14.02;;;;;;;-2.98;100.00;99328.06;5137267;28;20138;-62
2023/01/13 01:05:20;;;;;;;32.13;12.52;;;;;;;-3.06;100.00;99334.00;5137670;28;20134;-62
2023/01/13 01:07:47;;;;;;;31.98;12.05;;;;;;;-3.10;100.00;99318.44;5137415;28;20347;-62
2023/01/13 01:10:13;;;;;;;28.90;12.20;;;;;;;-3.12;100.00;99309.06;5137771;28;20305;-62
2023/01/13 01:12:40;;;;;;;38.13;13.43;;;;;;;-3.15;100.00;99296.19;5137225;28;20048;-66
2023/01/13 01:15:08;;;;;;;31.27;12.18;;;;;;;-3.14;100.00;99289.72;5137622;28;20061;-63
2023/01/13 01:17:35;;;;;;;36.22;13.18;;;;;;;-3.00;100.00;99277.38;5137149;28;20055;-59
2023/01/13 01:20:01;;;;;;;38.15;12.25;;;;;;;-2.97;100.00;99267.97;5137627;28;20142;-66
2023/01/13 01:22:27;;;;;;;38.42;10.90;;;;;;;-3.03;100.00;99272.56;5137093;28;20043;-59
2023/01/13 01:24:53;;;;;;;38.58;13.70;;;;;;;-2.80;100.00;99254.22;5137017;28;20499;-65
2023/01/13 01:27:20;;;;;;;35.35;13.55;;;;;;;-2.80;100.00;99260.38;5137115;28;20047;-59
2023/01/13 01:29:47;;;;;;;38.47;13.90;;;;;;;-2.72;100.00;99256.34;5137006;28;20063;-67
2023/01/13 01:32:15;;;;;;;44.05;14.95;;;;;;;-2.59;100.00;99253.06;5137301;28;20469;-58
2023/01/13 01:34:41;;;;;;;35.83;13.82;;;;;;;-2.70;100.00;99263.06;5137162;28;20096;-66
2023/01/13 01:37:07;;;;;;;44.75;14.98;;;;;;;-2.43;100.00;99253.81;5137289;28;20369;-58
2023/01/13 01:39:33;;;;;;;41.70;14.40;;;;;;;-2.30;100.00;99263.09;5136995;28;20110;-60
2023/01/13 01:44:54;;;;;;;44.00;14.25;;;;;;;-2.80;100.00;99270.31;5136961;28;20131;-65
2023/01/13 01:47:22;;;;;;;37.33;14.48;;;;;;;-2.72;100.00;99261.72;5136784;28;20051;-61
2023/01/13 01:49:49;;;;;;;39.28;15.32;;;;;;;-2.71;100.00;99274.06;5137258;28;20089;-65
2023/01/13 01:52:19;;;;;;;57.67;14.27;;;;;;;-2.66;100.00;99269.47;5136935;28;20048;-64
2023/01/13 01:54:50;;;;;;;42.60;15.27;;;;;;;-2.78;100.00;99260.13;5136834;28;20405;-62
2023/01/13 01:57:22;;;;;;;37.88;14.23;;;;;;;-2.81;100.00;99260.69;5136701;28;20051;-62
2023/01/13 01:59:49;;;;;;;31.63;12.38;;;;;;;-2.73;100.00;99242.13;5137092;28;20051;-63
2023/01/13 02:02:16;;;;;;;51.50;14.68;;;;;;;-2.77;100.00;99216.09;5136557;28;20082;-64
2023/01/13 02:04:49;;;;;;;30.83;12.77;;;;;;;-2.81;100.00;99209.69;5136999;28;20114;-63
2023/01/13 02:07:17;;;;;;;34.08;11.32;;;;;;;-2.65;100.00;99200.50;5136420;28;20061;-64
2023/01/13 02:09:43;;;;;;;36.63;14.15;;;;;;;-2.75;100.00;99190.63;5136491;28;20065;-60
2023/01/13 02:12:28;;;;;;;38.58;15.07;;;;;;;-2.69;100.00;99177.97;5136701;28;20054;-62
2023/01/13 02:14:56;;;;;;;45.97;15.23;;;;;;;-2.20;100.00;99158.31;5137172;27;20062;-62
2023/01/13 02:17:36;;;;;;;38.67;12.65;;;;;;;-2.72;100.00;99195.44;5140393;28;20116;-66
2023/01/13 02:20:43;;;;;;;39.40;13.50;;;;;;;-2.54;100.00;99187.81;5140070;28;20065;-65
2023/01/13 02:27:10;;;;;;;41.65;16.08;;;;;;;-2.19;100.00;99192.94;5140137;28;20422;-61
2023/01/13 02:32:50;;;;;;;51.75;13.00;;;;;;;-2.49;100.00;99222.69;5139905;28;20188;-60
2023/01/13 02:35:22;;;;;;;43.40;15.65;;;;;;;-2.58;100.00;99202.88;5139858;28;20076;-65
2023/01/13 02:37:50;;;;;;;55.40;14.30;;;;;;;-2.62;100.00;99200.75;5139838;28;20336;-61
2023/01/13 02:40:22;;;;;;;53.38;15.40;;;;;;;-2.49;100.00;99182.44;5140111;28;20051;-57
2023/01/13 02:45:47;;;;;;;49.72;16.98;;;;;;;-2.48;100.00;99173.28;5140117;28;20080;-63
2023/01/13 02:48:15;;;;;;;56.35;13.82;;;;;;;-2.50;100.00;99162.00;5139516;28;20061;-59
2023/01/13 02:50:46;;;;;;;68.35;14.38;;;;;;;-2.63;100.00;99153.53;5139492;28;20065;-56
2023/01/13 02:53:18;;;;;;;45.67;16.38;;;;;;;-2.51;100.00;99149.69;5139815;28;20047;-64
2023/01/13 02:55:48;;;;;;;50.25;17.10;;;;;;;-2.47;100.00;99129.25;5139411;28;20134;-66
2023/01/13 02:58:18;;;;;;;49.70;15.80;;;;;;;-2.41;100.00;99122.75;5139766;28;20051;-63
2023/01/13 03:00:45;;;;;;;51.65;18.23;;;;;;;-2.36;100.00;99122.72;5139365;28;20118;-59
2023/01/13 03:03:12;;;;;;;55.53;16.30;;;;;;;-2.33;100.00;99114.13;5139760;28;20155;-66
2023/01/13 03:05:42;;;;;;;64.55;16.80;;;;;;;-2.22;100.00;99109.47;5139229;28;20131;-59
2023/01/13 03:08:22;;;;;;;48.33;15.80;;;;;;;-2.30;100.00;99118.94;5139695;28;20051;-65
2023/01/13 03:11:05;;;;;;;63.63;17.92;;;;;;;-2.33;100.00;99140.16;5139087;28;20094;-58
2023/01/13 03:13:44;;;;;;;74.07;18.33;;;;;;;-2.05;100.00;99141.28;5139066;28;20052;-66
2023/01/13 03:16:20;;;;;;;57.95;18.13;;;;;;;-2.10;100.00;99160.91;5139429;28;20089;-66
2023/01/13 03:18:55;;;;;;;50.70;18.05;;;;;;;-2.16;100.00;99167.44;5139343;28;20413;-58
2023/01/13 03:21:28;;;;;;;49.92;15.75;;;;;;;-2.20;100.00;99177.09;5139507;28;20051;-59
2023/01/13 03:24:00;;;;;;;59.20;17.40;;;;;;;-2.26;100.00;99178.25;5138881;28;20052;-60
2023/01/13 03:26:36;;;;;;;57.67;14.25;;;;;;;-2.28;100.00;99175.81;5137425;27;20047;-60
2023/01/13 03:29:11;;;;;;;86.40;20.90;;;;;;;-2.20;100.00;99163.66;5139259;28;20047;-61
2023/01/13 03:31:43;;;;;;;67.90;18.50;;;;;;;-1.85;100.00;99151.03;5138694;28;20043;-60
2023/01/13 03:34:15;;;;;;;49.70;14.65;;;;;;;-2.26;100.00;99157.56;5139268;28;20050;-66
2023/01/13 03:36:45;;;;;;;62.92;16.10;;;;;;;-2.32;100.00;99141.78;5138829;28;20081;-67
2023/01/13 03:39:17;;;;;;;40.47;13.95;;;;;;;-2.18;100.00;99140.03;5139201;28;20079;-58
2023/01/13 03:41:51;;;;;;;78.57;21.02;;;;;;;-2.18;100.00;99130.09;5138621;28;20436;-60
2023/01/13 03:44:21;;;;;;;83.18;21.95;;;;;;;-2.07;100.00;99125.41;5138881;28;20051;-64
2023/01/13 03:46:57;;;;;;;63.70;21.42;;;;;;;-2.05;100.00;99120.56;5138772;28;20348;-60
2023/01/13 03:49:27;;;;;;;67.40;21.20;;;;;;;-1.95;100.00;99112.41;5138674;28;20120;-65
2023/01/13 03:51:58;;;;;;;63.25;19.45;;;;;;;-2.11;100.00;99124.38;5138643;28;20047;-66
2023/01/13 03:54:27;;;;;;;65.05;21.17;;;;;;;-1.92;100.00;99111.84;5138416;28;20051;-62
2023/01/13 03:56:57;;;;;;;57.60;19.98;;;;;;;-1.77;100.00;99113.56;5138823;28;20062;-58
2023/01/13 03:59:28;;;;;;;61.20;18.85;;;;;;;-1.97;100.00;99119.94;5138432;28;20142;-64
2023/01/13 04:02:02;;;;;;;68.13;19.48;;;;;;;-1.88;100.00;99106.72;5138791;28;20142;-59
2023/01/13 04:04:33;;;;;;;50.83;17.65;;;;;;;-2.11;100.00;99113.66;5138294;28;20043;-67
2023/01/13 04:07:11;;;;;;;72.30;18.88;;;;;;;-1.93;100.00;99104.88;5138144;28;20058;-61
2023/01/13 04:09:47;;;;;;;61.17;19.38;;;;;;;-1.95;100.00;99099.00;5138311;28;20481;-61
2023/01/13 04:12:19;;;;;;;64.30;17.77;;;;;;;-2.01;100.00;99097.44;5138290;28;20050;-67
2023/01/13 04:14:46;;;;;;;91.25;19.65;;;;;;;-2.05;100.00;99096.41;5138373;28;20651;-59
2023/01/13 04:17:13;;;;;;;62.38;18.27;;;;;;;-1.93;100.00;99093.34;5138124;28;20047;-64
2023/01/13 04:19:39;;;;;;;104.20;21.20;;;;;;;-1.93;100.00;99086.09;5138353;28;20134;-66
2023/01/13 04:22:05;;;;;;;58.50;19.13;;;;;;;-1.82;100.00;99085.97;5137960;28;20047;-64
2023/01/13 04:24:31;;;;;;;76.65;21.55;;;;;;;-1.81;100.00;99076.81;5138584;28;20047;-64
2023/01/13 04:26:58;;;;;;;97.20;18.30;;;;;;;-1.93;100.00;99080.72;5138062;28;20083;-64
2023/01/13 04:29:24;;;;;;;113.15;21.08;;;;;;;-1.83;100.00;99087.03;5138142;28;20051;-64
2023/01/13 04:31:50;;;;;;;51.38;17.35;;;;;;;-1.81;100.00;99082.19;5137986;28;20069;-62
2023/01/13 04:34:17;;;;;;;83.38;21.48;;;;;;;-1.86;100.00;99066.16;5137998;28;20046;-63
2023/01/13 04:36:44;;;;;;;57.22;17.50;;;;;;;-1.86;100.00;99068.81;5137887;28;20405;-67
2023/01/13 04:39:10;;;;;;;54.45;19.10;;;;;;;-1.78;100.00;99052.06;5137216;27;20344;-62
2023/01/13 04:44:17;;;;;;;60.58;20.33;;;;;;;-1.63;100.00;99062.66;5136706;28;20054;-67
2023/01/13 04:46:43;;;;;;;64.90;19.55;;;;;;;-1.66;100.00;99058.66;5137969;28;20051;-62
2023/01/13 04:49:09;;;;;;;53.15;20.02;;;;;;;-1.49;100.00;99052.78;5137614;28;20047;-68
2023/01/13 04:51:36;;;;;;;63.05;18.70;;;;;;;-1.50;100.00;99053.06;5138020;28;20368;-60
2023/01/13 04:54:03;;;;;;;55.40;18.33;;;;;;;-1.52;100.00;99069.50;5137739;28;20082;-66
2023/01/13 04:56:30;;;;;;;45.03;16.48;;;;;;;-1.52;100.00;99068.69;5137557;28;20058;-59
2023/01/13 04:58:56;;;;;;;52.92;18.90;;;;;;;-1.44;100.00;99065.38;5137675;28;20058;-63
2023/01/13 05:01:22;;;;;;;78.03;18.25;;;;;;;-1.58;100.00;99077.91;5137568;28;20047;-59
2023/01/13 05:03:48;;;;;;;50.25;18.95;;;;;;;-1.50;100.00;99072.72;5137678;28;20069;-66
2023/01/13 05:06:15;;;;;;;87.13;20.02;;;;;;;-1.36;100.00;99080.09;5137053;28;20051;-60
2023/01/13 05:08:41;;;;;;;50.97;17.65;;;;;;;-1.48;100.00;99083.97;5137471;28;20146;-65
2023/01/13 05:19:17;;;;;;;90.82;20.40;;;;;;;-1.52;100.00;99064.13;5137331;28;19934;-61
2023/01/13 05:27:12;;;;;;;48.35;16.92;;;;;;;-1.58;100.00;99038.38;5137507;28;20118;-66
2023/01/13 05:29:38;;;;;;;61.25;19.98;;;;;;;-1.57;100.00;99042.66;5136883;28;20097;-59
2023/01/13 05:32:07;;;;;;;48.42;17.40;;;;;;;-1.61;100.00;99038.94;5137255;28;20043;-66
2023/01/13 05:34:33;;;;;;;62.40;20.33;;;;;;;-1.61;100.00;99028.19;5137108;28;20058;-58
2023/01/13 05:37:00;;;;;;;68.38;19.95;;;;;;;-1.57;100.00;99037.28;5137022;28;20338;-62
2023/01/13 05:43:18;;;;;;;50.95;18.42;;;;;;;-1.46;100.00;99028.03;5136583;28;20057;-60
2023/01/13 05:44:57;;;;;;;65.78;20.33;;;;;;;-1.50;100.00;99036.94;5136400;28;20068;-69
2023/01/13 05:47:24;;;;;;;69.30;19.88;;;;;;;-1.56;100.00;99038.91;5144151;27;20047;-61
2023/01/13 05:49:50;;;;;;;65.88;22.13;;;;;;;-1.57;100.00;99048.03;5158242;27;20054;-63
2023/01/13 05:52:17;;;;;;;67.40;21.38;;;;;;;-1.31;100.00;99029.69;5160965;27;20053;-62
2023/01/13 05:54:44;;;;;;;54.70;19.58;;;;;;;-1.37;100.00;99032.75;5161044;27;20106;-65
2023/01/13 05:57:10;;;;;;;65.25;21.23;;;;;;;-1.20;100.00;99031.16;5161234;27;20196;-59
2023/01/13 05:59:37;;;;;;;58.67;19.65;;;;;;;-1.44;100.00;99050.03;5161036;27;20114;-65
2023/01/13 06:02:03;;;;;;;57.90;21.00;;;;;;;-1.35;100.00;99041.34;5160915;27;20083;-59
2023/01/13 06:04:29;;;;;;;69.45;21.05;;;;;;;-1.46;100.00;99051.44;5160916;27;20191;-65
2023/01/13 06:06:55;;;;;;;59.33;18.65;;;;;;;-1.23;100.00;99045.19;5160938;27;20050;-61
2023/01/13 06:09:22;;;;;;;75.22;20.60;;;;;;;-1.40;100.00;99060.22;5160602;27;20047;-64
2023/01/13 06:11:49;;;;;;;70.32;19.65;;;;;;;-1.51;100.00;99060.34;5160954;27;20046;-63
2023/01/13 06:14:15;;;;;;;57.20;17.55;;;;;;;-1.44;100.00;99051.91;5160703;27;20372;-63
2023/01/13 06:16:41;;;;;;;53.08;19.48;;;;;;;-1.27;100.00;99048.75;5160549;27;20057;-66
2023/01/13 06:19:11;;;;;;;54.13;21.42;;;;;;;-1.55;100.00;99059.31;5160381;27;20042;-61
2023/01/13 06:21:38;;;;;;;54.30;19.45;;;;;;;-1.45;100.00;99048.44;5160907;27;20047;-61
2023/01/13 06:24:05;;;;;;;49.90;17.23;;;;;;;-1.48;100.00;99046.31;5160462;27;20129;-61
2023/01/13 06:26:35;;;;;;;41.22;15.45;;;;;;;-1.45;100.00;99044.94;5160146;27;20141;-66
2023/01/13 06:29:02;;;;;;;60.00;20.83;;;;;;;-1.46;100.00;99046.84;5160125;27;20042;-60
2023/01/13 06:31:28;;;;;;;59.38;20.17;;;;;;;-1.35;100.00;99046.72;5160142;27;20416;-66
2023/01/13 06:34:00;;;;;;;50.90;16.67;;;;;;;-1.44;100.00;99050.03;5160455;27;20050;-60
2023/01/13 06:36:30;;;;;;;59.47;18.83;;;;;;;-1.46;100.00;99049.53;5160331;27;20054;-63
2023/01/13 06:39:03;;;;;;;55.47;20.95;;;;;;;-1.20;100.00;99050.00;5160538;27;20146;-65
2023/01/13 06:44:17;;;;;;;56.28;19.23;;;;;;;-1.24;100.00;99056.22;5160214;27;20059;-70
2023/01/13 06:46:45;;;;;;;62.55;22.33;;;;;;;-1.05;100.00;99073.19;5159329;27;20053;-71
2023/01/13 06:49:11;;;;;;;34.20;14.30;;;;;;;-1.30;100.00;99087.78;5159963;27;20051;-70
2023/01/13 06:51:39;;;;;;;67.13;22.60;;;;;;;-1.23;100.00;99082.84;5160136;27;20133;-62
2023/01/13 06:54:08;;;;;;;53.15;19.60;;;;;;;-1.06;100.00;99082.38;5159308;27;20051;-67
2023/01/13 06:56:35;;;;;;;73.80;26.38;;;;;;;-1.16;100.00;99103.22;5160092;27;20137;-68
2023/01/13 06:59:04;;;;;;;42.83;17.20;;;;;;;-1.03;100.00;99099.81;5159868;27;20064;-65
2023/01/13 07:01:32;;;;;;;71.53;27.80;;;;;;;-1.12;100.00;99107.72;5159698;27;20047;-69
2023/01/13 07:03:58;;;;;;;57.30;18.23;;;;;;;-1.13;100.00;99108.81;5159656;27;20051;-59
2023/01/13 07:06:27;;;;;;;89.40;19.98;;;;;;;-1.19;100.00;99115.34;5159898;27;20082;-61
2023/01/13 07:08:54;;;;;;;46.80;18.77;;;;;;;-0.71;100.00;99099.88;5159558;27;20054;-74
2023/01/13 07:11:21;;;;;;;59.97;20.40;;;;;;;-0.28;100.00;99101.66;5160037;27;20109;-66
2023/01/13 07:16:35;;;;;;;37.67;13.05;;;;;;;-0.70;100.00;99178.75;5159728;27;20132;-66
2023/01/13 07:19:03;;;;;;;51.53;18.20;;;;;;;-0.43;100.00;99191.59;5159666;27;20082;-67
2023/01/13 07:21:33;;;;;;;47.80;18.45;;;;;;;-0.61;100.00;99216.59;5160108;27;20126;-72
2023/01/13 07:24:00;;;;;;;51.75;18.77;;;;;;;-0.20;100.00;99224.94;5159836;27;20399;-63
2023/01/13 07:26:27;;;;;;;45.65;16.27;;;;;;;-0.44;100.00;99259.19;5158579;27;20053;-72
2023/01/13 07:28:53;;;;;;;49.90;19.40;;;;;;;-0.16;100.00;99269.06;5159849;27;20050;-66
2023/01/13 07:31:21;;;;;;;68.97;19.65;;;;;;;-0.40;100.00;99292.53;5159387;27;20406;-68
2023/01/13 07:33:53;;;;;;;41.55;15.75;;;;;;;-0.54;100.00;99298.63;5141275;27;20047;-68
2023/01/13 07:36:19;;;;;;;53.08;17.85;;;;;;;-0.60;100.00;99305.19;5159407;27;20082;-66
2023/01/13 07:38:52;;;;;;;54.70;19.65;;;;;;;-0.55;100.00;99315.09;5159185;27;20054;-72
2023/01/13 07:44:05;;;;;;;35.17;15.40;;;;;;;-0.62;100.00;99285.81;5159383;27;20053;-69
2023/01/13 07:46:32;;;;;;;53.92;19.50;;;;;;;-0.62;100.00;99276.94;5158948;27;20046;-68
2023/01/13 07:49:01;;;;;;;54.85;17.17;;;;;;;-0.23;100.00;99276.72;5159296;27;20046;-66
2023/01/13 07:51:28;;;;;;;53.08;18.63;;;;;;;0.01;100.00;99287.41;5159211;27;20054;-71
2023/01/13 07:53:56;;;;;;;48.90;19.20;;;;;;;-0.38;100.00;99322.69;5158714;27;20419;-70
2023/01/13 07:56:25;;;;;;;48.30;18.25;;;;;;;-0.11;100.00;99338.25;5159007;27;20061;-72
2023/01/13 07:58:54;;;;;;;64.88;16.00;;;;;;;-0.57;100.00;99363.84;5159284;27;20376;-72
2023/01/13 08:01:20;;;;;;;39.58;14.38;;;;;;;-0.74;100.00;99348.13;5158988;27;20050;-70
2023/01/13 08:03:48;;;;;;;42.00;16.60;;;;;;;-0.32;100.00;99338.50;5159002;27;20060;-68
2023/01/13 08:06:18;;;;;;;51.35;17.73;;;;;;;-0.18;100.00;99348.56;5158549;27;20051;-68
2023/01/13 08:08:46;;;;;;;42.95;13.90;;;;;;;-0.37;100.00;99372.78;5159041;27;20427;-68
2023/01/13 08:11:13;;;;;;;48.30;17.17;;;;;;;-0.27;100.00;99373.47;5158900;27;20130;-71
2023/01/13 08:13:39;;;;;;;48.33;16.17;;;;;;;-0.21;100.00;99371.50;5158266;27;20392;-64
2023/01/13 08:16:09;;;;;;;43.45;15.73;;;;;;;-0.48;100.00;99372.91;5158249;27;20062;-70
2023/01/13 08:18:38;;;;;;;39.67;16.25;;;;;;;-0.30;100.00;99370.53;5159002;27;20058;-65
2023/01/13 08:21:09;;;;;;;49.88;16.42;;;;;;;-0.15;100.00;99369.56;5158300;27;20138;-71
2023/01/13 08:23:39;;;;;;;46.60;14.05;;;;;;;-0.28;100.00;99398.00;5140637;27;20494;-75
2023/01/13 08:28:53;;;;;;;46.35;16.20;;;;;;;-0.31;100.00;99380.50;5158531;27;20134;-65
2023/01/13 08:31:20;;;;;;;48.55;16.27;;;;;;;-0.34;100.00;99372.19;5158746;27;20057;-73
2023/01/13 08:33:46;;;;;;;30.60;12.75;;;;;;;-0.42;100.00;99367.47;5158236;27;20137;-67
2023/01/13 08:36:12;;;;;;;52.33;18.00;;;;;;;-0.31;100.00;99368.94;5159137;27;20069;-77
2023/01/13 08:38:40;;;;;;;51.25;15.57;;;;;;;-0.42;100.00;99365.56;5158403;27;20042;-75
2023/01/13 08:41:10;;;;;;;60.60;16.83;;;;;;;-0.34;100.00;99350.66;5158757;27;20042;-73
2023/01/13 08:43:37;;;;;;;43.42;16.02;;;;;;;-0.36;100.00;99342.06;5158065;27;20055;-61
2023/01/13 08:46:03;;;;;;;64.85;14.50;;;;;;;-0.32;100.00;99343.09;5158301;27;20050;-68
2023/01/13 08:48:30;;;;;;;83.13;16.45;;;;;;;-0.22;100.00;99336.78;5158437;27;20050;-68
2023/01/13 08:51:02;;;;;;;62.72;17.35;;;;;;;-0.32;100.00;99345.78;5158242;27;20050;-66
2023/01/13 08:53:28;;;;;;;47.92;16.10;;;;;;;-0.58;100.00;99340.69;5158297;27;20055;-63
2023/01/13 08:55:55;;;;;;;50.17;18.90;;;;;;;-0.45;100.00;99324.94;5158019;27;20047;-69
2023/01/13 08:58:21;;;;;;;42.13;15.75;;;;;;;-0.53;100.00;99310.22;5158144;27;20058;-70
2023/01/13 09:00:48;;;;;;;60.05;18.90;;;;;;;-0.60;100.00;99299.81;5158111;27;20066;-67
2023/01/13 09:03:14;;;;;;;44.20;15.38;;;;;;;-0.55;100.00;99280.88;5158229;27;20047;-70
2023/01/13 09:05:40;;;;;;;43.15;16.23;;;;;;;-0.61;100.00;99265.88;5157839;27;20047;-65
2023/01/13 09:08:06;;;;;;;58.67;19.65;;;;;;;-0.44;100.00;99246.53;5158303;27;20372;-72
2023/01/13 09:10:34;;;;;;;45.72;19.25;;;;;;;-0.60;100.00;99240.56;5157970;27;20157;-64
2023/01/13 09:13:13;;;;;;;56.92;18.65;;;;;;;-0.53;100.00;99218.66;5157937;27;20054;-66
2023/01/13 09:15:40;;;;;;;62.55;17.08;;;;;;;-0.72;100.00;99216.75;5157784;27;20418;-68
2023/01/13 09:18:06;;;;;;;62.85;19.92;;;;;;;-0.62;100.00;99194.28;5157615;27;20492;-72
2023/01/13 09:20:32;;;;;;;57.22;16.40;;;;;;;-0.71;100.00;99190.63;5157739;27;20164;-68
2023/01/13 09:22:59;;;;;;;76.78;20.58;;;;;;;-0.48;100.00;99170.91;5157538;27;20392;-68
2023/01/13 09:25:25;;;;;;;76.43;19.92;;;;;;;-0.64;100.00;99177.59;5160609;27;20050;-69
2023/01/13 09:27:51;;;;;;;54.58;19.95;;;;;;;-0.65;100.00;99151.78;5161307;27;20050;-67
2023/01/13 09:30:18;;;;;;;82.68;18.52;;;;;;;-0.71;100.00;99142.16;5161772;27;20053;-71
2023/01/13 09:32:45;;;;;;;46.08;18.13;;;;;;;-0.64;100.00;99121.06;5161088;27;20095;-67
2023/01/13 09:35:11;;;;;;;56.72;19.20;;;;;;;-0.39;100.00;99100.22;5161822;27;20134;-73
2023/01/13 09:37:40;;;;;;;71.65;21.30;;;;;;;-0.34;100.00;99108.22;5161124;27;20042;-71
2023/01/13 09:40:12;;;;;;;53.92;18.45;;;;;;;-0.44;100.00;99103.00;5161183;27;20055;-66
2023/01/13 09:45:33;;;;;;;49.40;19.33;;;;;;;-0.09;100.00;99117.78;5161623;27;20070;-73
2023/01/13 09:48:04;;;;;;;40.63;18.02;;;;;;;-0.27;100.00;99122.94;5161688;27;20046;-67
2023/01/13 09:50:40;;;;;;;49.17;18.48;;;;;;;-0.49;100.00;99133.50;5160887;27;20415;-67
2023/01/13 09:53:12;;;;;;;49.13;15.18;;;;;;;-0.48;100.00;99121.63;5161279;27;20042;-66
2023/01/13 09:55:39;;;;;;;46.65;17.25;;;;;;;-0.29;100.00;99113.53;5161017;27;20387;-64
2023/01/13 09:58:11;;;;;;;52.08;18.45;;;;;;;-0.35;100.00;99115.50;5160899;27;20157;-73
2023/01/13 10:00:45;;;;;;;44.90;18.38;;;;;;;-0.20;100.00;99109.06;5160865;27;20152;-69
2023/01/13 10:03:20;;;;;;;44.42;17.30;;;;;;;-0.46;100.00;99124.03;5160913;27;20141;-63
2023/01/13 10:05:55;;;;;;;44.00;17.80;;;;;;;-0.51;100.00;99114.94;5160886;27;20093;-64
2023/01/13 10:08:24;;;;;;;49.22;20.05;;;;;;;-0.48;100.00;99098.19;5160626;27;20335;-73
2023/01/13 10:10:54;;;;;;;53.83;20.17;;;;;;;-0.41;100.00;99091.63;5160912;27;20103;-71
2023/01/13 10:13:21;;;;;;;38.22;15.55;;;;;;;-0.60;100.00;99089.78;5160504;27;20054;-72
2023/01/13 10:16:12;;;;;;;47.90;18.65;;;;;;;-0.56;100.00;99071.16;5160372;27;20051;-67
2023/01/13 10:18:47;;;;;;;60.10;21.75;;;;;;;-0.32;100.00;99066.44;5160537;27;20060;-68
2023/01/13 10:21:30;;;;;;;95.78;20.58;;;;;;;-0.53;100.00;99068.66;5160582;27;20051;-72
2023/01/13 10:24:03;;;;;;;50.55;19.08;;;;;;;-0.35;100.00;99063.53;5160249;27;20387;-73
2023/01/13 10:26:52;;;;;;;55.03;19.52;;;;;;;-0.20;100.00;99055.19;5160350;27;20087;-72
2023/01/13 10:29:24;;;;;;;57.40;19.95;;;;;;;-0.14;100.00;99058.56;5160265;27;20050;-65
2023/01/13 10:31:51;;;;;;;43.72;17.30;;;;;;;-0.23;100.00;99063.88;5160402;27;20411;-70
2023/01/13 10:34:19;;;;;;;49.22;18.10;;;;;;;-0.28;100.00;99059.34;5160130;27;20053;-73
2023/01/13 10:36:59;;;;;;;65.60;16.52;;;;;;;-0.36;100.00;99061.94;5159826;27;20058;-70
2023/01/13 10:39:27;;;;;;;50.03;16.92;;;;;;;-0.24;100.00;99059.56;5160023;27;20047;-67
2023/01/13 10:42:04;;;;;;;49.75;18.75;;;;;;;-0.14;100.00;99053.19;5160289;27;20395;-66
2023/01/13 10:44:30;;;;;;;69.72;19.40;;;;;;;-0.31;100.00;99051.84;5160008;27;20050;-72
2023/01/13 10:46:58;;;;;;;57.97;15.57;;;;;;;-0.31;100.00;99042.97;5160336;27;20097;-65
2023/01/13 10:49:29;;;;;;;32.55;12.73;;;;;;;-0.40;100.00;99047.44;5159987;27;20390;-64
2023/01/13 10:51:56;;;;;;;47.58;16.42;;;;;;;-0.39;100.00;99041.78;5160228;27;20073;-68
2023/01/13 10:54:24;;;;;;;46.80;17.33;;;;;;;-0.24;100.00;99027.22;5160301;27;20111;-67
2023/01/13 10:57:14;;;;;;;54.95;17.50;;;;;;;-0.15;100.00;99016.56;5159951;27;20145;-73
2023/01/13 10:59:41;;;;;;;51.10;16.45;;;;;;;-0.30;100.00;99033.78;5160269;27;20053;-69
2023/01/13 11:02:22;;;;;;;44.63;17.90;;;;;;;-0.27;100.00;99025.94;5159839;27;20194;-72
2023/01/13 11:05:01;;;;;;;45.47;17.45;;;;;;;-0.36;100.00;99024.22;5160134;27;20089;-73
2023/01/13 11:07:30;;;;;;;40.78;14.88;;;;;;;-0.51;100.00;99020.69;5159492;27;20445;-69
2023/01/13 11:10:13;;;;;;;71.80;15.85;;;;;;;-0.40;100.00;99007.84;5159739;27;20089;-67
2023/01/13 11:12:45;;;;;;;58.65;18.10;;;;;;;-0.23;100.00;98991.13;5160030;27;20057;-66
2023/01/13 11:15:18;;;;;;;41.15;15.20;;;;;;;-0.33;100.00;98996.69;5159594;27;20137;-69
2023/01/13 11:17:58;;;;;;;43.88;18.10;;;;;;;-0.33;100.00;98988.63;5159643;27;20046;-69
2023/01/13 11:20:31;;;;;;;33.08;14.27;;;;;;;-0.28;100.00;98980.44;5159491;27;20050;-66
2023/01/13 11:23:01;;;;;;;51.10;17.42;;;;;;;-0.25;100.00;98969.84;5160024;27;20047;-73
2023/01/13 11:25:32;;;;;;;59.28;15.35;;;;;;;-0.16;100.00;98972.66;5159232;27;20137;-72
2023/01/13 11:28:04;;;;;;;46.65;17.25;;;;;;;-0.03;100.00;98968.38;5159621;27;20042;-69
2023/01/13 11:30:39;;;;;;;41.92;17.58;;;;;;;-0.14;100.00;98972.34;5159709;27;20050;-66
2023/01/13 11:33:24;;;;;;;50.78;16.40;;;;;;;-0.04;100.00;98969.47;5159247;27;20095;-74
2023/01/13 11:36:00;;;;;;;41.25;15.35;;;;;;;-0.21;100.00;98975.44;5159632;27;20046;-67
2023/01/13 11:38:32;;;;;;;44.70;17.33;;;;;;;-0.11;100.00;98955.59;5159302;27;20105;-70
2023/01/13 11:41:07;;;;;;;41.20;16.13;;;;;;;-0.13;100.00;98960.50;5159683;27;20107;-71
2023/01/13 11:43:39;;;;;;;44.15;18.10;;;;;;;-0.09;100.00;98972.28;5159196;27;20339;-71
2023/01/13 11:46:05;;;;;;;39.30;15.02;;;;;;;-0.09;100.00;98961.50;5158992;27;20057;-73
2023/01/13 11:48:36;;;;;;;44.15;17.20;;;;;;;0.03;100.00;98960.97;5158058;27;20055;-69
2023/01/13 11:51:10;;;;;;;46.00;17.90;;;;;;;-0.06;100.00;98975.16;5159187;27;20082;-70
2023/01/13 11:53:53;;;;;;;44.63;17.55;;;;;;;0.15;100.00;98963.97;5159416;27;20388;-65
2023/01/13 11:56:47;;;;;;;45.20;18.05;;;;;;;0.10;100.00;98977.53;5159166;27;20375;-65
2023/01/13 11:59:41;;;;;;;56.67;18.50;;;;;;;0.09;100.00;98976.75;5159507;27;20107;-74
2023/01/13 12:02:21;;;;;;;51.38;18.00;;;;;;;0.20;100.00;98974.63;5158702;27;20054;-73
2023/01/13 12:04:58;;;;;;;39.45;16.73;;;;;;;0.10;100.00;98989.16;5158957;27;20061;-72
2023/01/13 12:07:40;;;;;;;49.05;18.02;;;;;;;0.33;100.00;98994.59;5159230;27;20050;-74
2023/01/13 12:10:16;;;;;;;43.55;17.98;;;;;;;0.69;100.00;98989.25;5158692;27;20155;-69